createdAt,value
2019-01-14T00:01:34.316Z,3.00
2019-01-14T00:04:03.791Z,2.97
2019-01-14T00:06:33.282Z,3.10
2019-01-14T00:09:03.172Z,2.50
2019-01-14T00:11:32.704Z,2.93
2019-01-14T00:14:02.205Z,2.07
2019-01-14T00:16:31.721Z,2.17
2019-01-14T00:19:01.263Z,2.47
2019-01-14T00:21:30.766Z,2.90
2019-01-14T00:24:00.279Z,3.03
2019-01-14T00:26:29.830Z,3.37
2019-01-14T00:28:59.317Z,3.73
2019-01-14T00:31:28.842Z,2.67
2019-01-14T00:33:58.674Z,2.73
2019-01-14T00:36:28.324Z,3.10
2019-01-14T00:38:57.855Z,3.07
2019-01-14T00:41:27.363Z,3.37
2019-01-14T00:43:56.881Z,3.50
2019-01-14T00:46:26.394Z,3.13
2019-01-14T00:48:56.378Z,2.57
2019-01-14T00:51:25.866Z,2.97
2019-01-14T00:53:55.377Z,3.83
2019-01-14T00:56:25.045Z,3.27
2019-01-14T00:58:54.527Z,2.60
2019-01-14T01:01:24.027Z,2.97
2019-01-14T01:03:53.674Z,3.87
2019-01-14T01:06:24.828Z,2.63
2019-01-14T01:08:54.351Z,3.93
2019-01-14T01:11:23.861Z,3.00
2019-01-14T01:13:53.355Z,3.50
2019-01-14T01:16:22.915Z,3.13
2019-01-14T01:18:52.409Z,3.53
2019-01-14T01:21:21.891Z,3.53
2019-01-14T01:23:51.366Z,3.33
2019-01-14T01:26:20.889Z,3.77
2019-01-14T01:28:50.417Z,3.17
2019-01-14T01:31:19.898Z,3.30
2019-01-14T01:33:49.423Z,2.97
2019-01-14T01:36:19.210Z,3.57
2019-01-14T01:38:48.690Z,2.70
2019-01-14T01:41:18.186Z,3.70
2019-01-14T01:43:47.866Z,3.87
2019-01-14T01:46:17.371Z,3.37
2019-01-14T01:48:46.879Z,3.97
2019-01-14T01:51:16.550Z,3.43
2019-01-14T01:53:46.056Z,4.20
2019-01-14T01:56:15.602Z,3.23
2019-01-14T01:58:45.142Z,3.27
2019-01-14T02:01:14.607Z,4.60
2019-01-14T02:03:44.129Z,3.57
2019-01-14T02:06:13.931Z,4.40
2019-01-14T02:08:43.402Z,4.57
2019-01-14T02:11:12.977Z,5.07
2019-01-14T02:13:42.503Z,3.40
2019-01-14T02:16:11.954Z,4.50
2019-01-14T02:18:41.458Z,3.93
2019-01-14T02:21:10.993Z,4.77
2019-01-14T02:23:40.515Z,3.33
2019-01-14T02:26:10.036Z,3.40
2019-01-14T02:28:39.542Z,3.70
2019-01-14T02:31:09.054Z,3.80
2019-01-14T02:33:38.559Z,4.00
2019-01-14T02:36:08.208Z,3.70
2019-01-14T02:38:37.626Z,4.23
2019-01-14T02:41:07.143Z,4.20
2019-01-14T02:43:36.667Z,4.17
2019-01-14T02:46:06.170Z,4.40
2019-01-14T02:48:35.665Z,4.77
2019-01-14T02:51:05.344Z,3.53
2019-01-14T02:53:34.846Z,3.70
2019-01-14T02:56:04.346Z,3.93
2019-01-14T02:58:33.850Z,4.47
2019-01-14T03:01:03.437Z,4.13
2019-01-14T03:03:32.956Z,4.30
2019-01-14T03:06:02.764Z,4.07
2019-01-14T03:08:32.263Z,4.07
2019-01-14T03:11:01.748Z,3.80
2019-01-14T03:13:30.636Z,4.47
2019-01-14T03:16:00.102Z,3.27
2019-01-14T03:18:29.594Z,4.80
2019-01-14T03:20:59.090Z,4.47
2019-01-14T03:23:28.580Z,3.60
2019-01-14T03:25:58.516Z,4.37
2019-01-14T03:28:28.155Z,4.03
2019-01-14T03:30:57.657Z,4.40
2019-01-14T03:33:27.177Z,4.10
2019-01-14T03:35:56.820Z,3.73
2019-01-14T03:38:26.323Z,3.90
2019-01-14T03:40:55.809Z,3.90
2019-01-14T03:43:25.331Z,3.77
2019-01-14T03:45:54.848Z,3.67
2019-01-14T03:48:23.685Z,5.63
2019-01-14T03:50:53.266Z,4.10
2019-01-14T03:53:22.754Z,4.03
2019-01-14T03:55:52.369Z,3.87
2019-01-14T03:58:21.872Z,4.70
2019-01-14T04:00:51.436Z,3.60
2019-01-14T04:03:20.924Z,3.90
2019-01-14T04:05:50.463Z,3.77
2019-01-14T04:08:20.012Z,3.53
2019-01-14T04:10:49.486Z,3.83
2019-01-14T04:13:19.004Z,3.43
2019-01-14T04:15:48.644Z,3.77
2019-01-14T04:18:18.150Z,3.57
2019-01-14T04:20:47.658Z,4.03
2019-01-14T04:23:17.173Z,3.93
2019-01-14T04:25:46.693Z,3.57
2019-01-14T04:28:16.267Z,4.67
2019-01-14T04:30:45.801Z,3.80
2019-01-14T04:33:15.304Z,3.97
2019-01-14T04:35:44.762Z,4.77
2019-01-14T04:38:14.255Z,3.27
2019-01-14T04:40:43.728Z,3.67
2019-01-14T04:43:13.224Z,4.07
2019-01-14T04:45:42.723Z,4.03
2019-01-14T04:48:12.198Z,4.03
2019-01-14T04:50:41.689Z,3.93
2019-01-14T04:53:11.237Z,3.83
2019-01-14T04:55:40.762Z,3.60
2019-01-14T04:58:10.404Z,4.00
2019-01-14T05:00:40.002Z,4.43
2019-01-14T05:03:09.499Z,4.30
2019-01-14T05:05:39.000Z,3.73
2019-01-14T05:08:08.551Z,4.57
2019-01-14T05:10:37.994Z,3.67
2019-01-14T05:13:07.490Z,4.10
2019-01-14T05:15:37.190Z,4.03
2019-01-14T05:18:07.014Z,4.70
2019-01-14T05:20:35.846Z,4.50
2019-01-14T05:23:05.567Z,4.07
2019-01-14T05:25:35.104Z,3.17
2019-01-14T05:28:04.613Z,4.67
2019-01-14T05:30:34.091Z,4.43
2019-01-14T05:33:03.612Z,5.03
2019-01-14T05:35:33.120Z,3.43
2019-01-14T05:38:02.625Z,3.60
2019-01-14T05:40:32.130Z,4.00
2019-01-14T05:43:01.599Z,5.00
2019-01-14T05:45:31.119Z,3.33
2019-01-14T05:48:00.606Z,3.87
2019-01-14T05:50:30.095Z,3.90
2019-01-14T05:52:59.623Z,3.80
2019-01-14T05:55:29.105Z,3.80
2019-01-14T05:57:57.966Z,4.10
2019-01-14T06:00:52.101Z,3.93
2019-01-14T06:03:21.593Z,3.70
2019-01-14T06:05:51.087Z,2.63
2019-01-14T06:08:20.591Z,3.77
2019-01-14T06:10:50.084Z,4.40
2019-01-14T06:13:19.611Z,3.83
2019-01-14T06:15:49.084Z,3.03
2019-01-14T06:18:18.610Z,3.70
2019-01-14T06:20:47.484Z,4.03
2019-01-14T06:23:16.979Z,2.90
2019-01-14T06:25:46.699Z,3.23
2019-01-14T06:28:16.206Z,4.80
2019-01-14T06:30:45.704Z,3.43
2019-01-14T06:33:15.154Z,3.80
2019-01-14T06:35:44.676Z,3.40
2019-01-14T06:38:14.189Z,3.83
2019-01-14T06:40:43.700Z,3.23
2019-01-14T06:43:13.211Z,3.07
2019-01-14T06:45:42.719Z,4.43
2019-01-14T06:48:12.226Z,4.40
2019-01-14T06:50:41.735Z,3.93
2019-01-14T06:53:11.267Z,3.33
2019-01-14T06:55:40.800Z,2.90
2019-01-14T06:58:10.446Z,3.83
2019-01-14T07:00:40.001Z,4.07
2019-01-14T07:03:08.826Z,3.27
2019-01-14T07:05:37.717Z,3.37
2019-01-14T07:08:07.224Z,3.70
2019-01-14T07:10:36.686Z,2.67
2019-01-14T07:13:06.275Z,2.70
2019-01-14T07:15:35.805Z,2.70
2019-01-14T07:18:05.433Z,2.30
2019-01-14T07:20:34.932Z,2.17
2019-01-14T07:23:04.667Z,2.40
2019-01-14T07:25:34.187Z,2.43
2019-01-14T07:28:03.675Z,2.40
2019-01-14T07:30:33.165Z,2.17
2019-01-14T07:33:02.663Z,1.80
2019-01-14T07:35:32.364Z,2.30
2019-01-14T07:38:06.928Z,2.10
2019-01-14T07:40:35.806Z,1.97
2019-01-14T07:43:05.283Z,2.13
2019-01-14T07:45:34.883Z,1.67
2019-01-14T07:48:04.417Z,1.80
2019-01-14T07:50:33.917Z,1.93
2019-01-14T07:53:03.434Z,1.53
2019-01-14T07:55:32.914Z,1.90
2019-01-14T07:58:02.427Z,2.20
2019-01-14T08:00:31.933Z,2.00
2019-01-14T08:03:01.422Z,2.27
2019-01-14T08:05:30.941Z,1.70
2019-01-14T08:08:00.546Z,1.83
2019-01-14T08:10:30.999Z,2.17
2019-01-14T08:13:00.498Z,2.20
2019-01-14T08:15:29.983Z,1.53
2019-01-14T08:17:59.465Z,1.77
2019-01-14T08:20:28.939Z,2.23
2019-01-14T08:22:58.463Z,2.00
2019-01-14T08:25:28.080Z,2.20
2019-01-14T08:27:57.604Z,2.20
2019-01-14T08:30:27.047Z,1.63
2019-01-14T08:32:56.571Z,1.80
2019-01-14T08:35:26.090Z,2.00
2019-01-14T08:37:55.617Z,2.10
2019-01-14T08:40:25.050Z,2.07
2019-01-14T08:42:54.569Z,2.00
2019-01-14T08:45:24.069Z,2.10
2019-01-14T08:47:53.602Z,1.57
2019-01-14T08:50:23.215Z,1.53
2019-01-14T08:52:53.155Z,1.83
2019-01-14T08:55:22.753Z,1.40
2019-01-14T08:57:54.603Z,1.27
2019-01-14T09:00:23.837Z,1.43
2019-01-14T09:02:53.389Z,1.60
2019-01-14T09:05:22.942Z,1.00
2019-01-14T09:07:52.441Z,1.73
2019-01-14T09:10:26.180Z,1.47
2019-01-14T09:12:57.177Z,1.40
2019-01-14T09:15:27.005Z,1.33
2019-01-14T09:18:02.647Z,1.33
2019-01-14T09:20:27.747Z,1.30
2019-01-14T09:22:57.258Z,1.97
2019-01-14T09:25:26.825Z,1.77
2019-01-14T09:27:56.319Z,1.37
2019-01-14T09:30:26.727Z,1.73
2019-01-14T09:32:56.283Z,1.40
2019-01-14T09:35:25.755Z,2.13
2019-01-14T09:37:55.254Z,2.27
2019-01-14T09:40:25.489Z,1.80
2019-01-14T09:42:54.987Z,2.00
2019-01-14T09:45:24.476Z,1.80
2019-01-14T09:47:53.370Z,2.27
2019-01-14T09:50:22.951Z,1.90
2019-01-14T09:52:52.409Z,1.83
2019-01-14T09:55:22.086Z,1.20
2019-01-14T09:57:51.590Z,2.07
2019-01-14T10:00:21.170Z,2.03
2019-01-14T10:02:55.390Z,1.37
2019-01-14T10:05:21.766Z,1.70
2019-01-14T10:07:51.307Z,1.70
2019-01-14T10:10:21.216Z,1.90
2019-01-14T10:12:50.771Z,1.60
2019-01-14T10:15:25.125Z,1.53
2019-01-14T10:18:00.367Z,1.40
2019-01-14T10:20:29.879Z,1.20
2019-01-14T10:22:59.392Z,2.07
2019-01-14T10:25:28.874Z,1.77
2019-01-14T10:27:58.494Z,2.13
2019-01-14T10:30:27.990Z,2.00
2019-01-14T10:32:57.492Z,1.77
2019-01-14T10:35:27.034Z,1.93
2019-01-14T10:37:55.844Z,2.13
2019-01-14T10:40:25.340Z,2.13
2019-01-14T10:42:54.838Z,2.10
2019-01-14T10:45:24.808Z,1.93
2019-01-14T10:47:54.314Z,1.90
2019-01-14T10:50:23.937Z,2.13
2019-01-14T10:52:53.603Z,2.03
2019-01-14T10:55:23.084Z,2.23
2019-01-14T10:57:52.575Z,2.10
2019-01-14T11:00:24.439Z,3.00
2019-01-14T11:02:54.022Z,2.07
2019-01-14T11:05:24.914Z,2.27
2019-01-14T11:07:54.515Z,2.20
2019-01-14T11:10:24.018Z,2.40
2019-01-14T11:12:53.622Z,3.03
2019-01-14T11:15:23.259Z,2.07
2019-01-14T11:17:52.773Z,2.33
2019-01-14T11:20:25.087Z,2.60
2019-01-14T11:22:54.668Z,1.93
2019-01-14T11:25:24.157Z,2.07
2019-01-14T11:27:53.637Z,1.90
2019-01-14T11:30:25.419Z,1.93
2019-01-14T11:32:54.904Z,1.97
2019-01-14T11:35:24.374Z,1.83
2019-01-14T11:37:53.849Z,1.80
2019-01-14T11:40:25.945Z,1.93
2019-01-14T11:42:55.438Z,2.27
2019-01-14T11:45:24.928Z,1.90
2019-01-14T11:47:54.405Z,2.10
2019-01-14T11:50:23.905Z,1.80
2019-01-14T11:52:53.426Z,2.03
2019-01-14T11:55:22.983Z,1.93
2019-01-14T11:57:52.464Z,1.97
2019-01-14T12:00:24.037Z,1.83
2019-01-14T12:02:54.282Z,1.30
2019-01-14T12:05:24.363Z,1.90
2019-01-14T12:07:53.918Z,1.80
2019-01-14T12:10:23.418Z,1.60
2019-01-14T12:12:52.962Z,2.10
2019-01-14T12:15:27.414Z,1.90
2019-01-14T12:17:56.947Z,1.60
2019-01-14T12:20:26.480Z,1.93
2019-01-14T12:22:55.936Z,1.87
2019-01-14T12:25:25.578Z,1.67
2019-01-14T12:27:55.085Z,2.10
2019-01-14T12:30:27.946Z,1.93
2019-01-14T12:32:57.518Z,2.33
2019-01-14T12:35:27.058Z,2.10
2019-01-14T12:37:56.514Z,1.83
2019-01-14T12:40:26.131Z,2.43
2019-01-14T12:42:56.638Z,1.87
2019-01-14T12:45:26.158Z,2.00
2019-01-14T12:47:55.736Z,2.30
2019-01-14T12:50:25.990Z,2.33
2019-01-14T12:53:04.851Z,2.70
2019-01-14T12:55:34.821Z,2.37
2019-01-14T12:58:07.120Z,1.97
2019-01-14T13:00:36.566Z,1.73
2019-01-14T13:03:06.215Z,2.00
2019-01-14T13:05:35.694Z,2.47
2019-01-14T13:08:05.295Z,2.00
2019-01-14T13:10:34.802Z,2.27
2019-01-14T13:13:04.395Z,1.97
2019-01-14T13:15:33.925Z,1.80
2019-01-14T13:18:05.426Z,2.17
2019-01-14T13:20:34.643Z,2.10
2019-01-14T13:23:04.344Z,1.80
2019-01-14T13:25:34.150Z,2.83
2019-01-14T13:28:03.869Z,1.70
2019-01-14T13:30:33.444Z,1.63
2019-01-14T13:33:03.200Z,1.50
2019-01-14T13:35:32.747Z,2.03
2019-01-14T13:38:02.222Z,2.00
2019-01-14T13:40:31.726Z,2.57
2019-01-14T13:43:01.552Z,2.20
2019-01-14T13:45:31.026Z,3.50
2019-01-14T13:48:00.833Z,3.30
2019-01-14T13:50:30.586Z,2.20
2019-01-14T13:53:01.966Z,2.30
2019-01-14T13:55:31.502Z,1.83
2019-01-14T13:58:00.988Z,1.93
2019-01-14T14:00:30.483Z,2.10
2019-01-14T14:02:59.951Z,1.67
2019-01-14T14:05:29.707Z,2.33
2019-01-14T14:07:59.453Z,1.97
2019-01-14T14:10:31.413Z,2.10
2019-01-14T14:13:08.895Z,2.00
2019-01-14T14:15:38.606Z,2.50
2019-01-14T14:18:08.187Z,2.27
2019-01-14T14:20:37.660Z,2.57
2019-01-14T14:23:07.198Z,2.07
2019-01-14T14:25:37.946Z,2.90
2019-01-14T14:28:07.464Z,2.07
2019-01-14T14:30:39.834Z,3.03
2019-01-14T14:33:09.302Z,2.00
2019-01-14T14:35:38.817Z,2.17
2019-01-14T14:38:09.502Z,2.23
2019-01-14T14:40:39.013Z,1.80
2019-01-14T14:43:07.845Z,2.07
2019-01-14T14:45:37.342Z,2.10
2019-01-14T14:48:07.862Z,2.47
2019-01-14T14:50:37.319Z,2.27
2019-01-14T14:53:06.851Z,2.90
2019-01-14T14:55:36.342Z,2.57
2019-01-14T14:58:05.865Z,2.30
2019-01-14T15:00:35.366Z,2.47
2019-01-14T15:03:04.965Z,3.10
2019-01-14T15:05:35.658Z,2.20
2019-01-14T15:08:05.456Z,2.00
2019-01-14T15:10:34.964Z,2.77
2019-01-14T15:13:04.558Z,2.40
2019-01-14T15:15:34.061Z,2.93
2019-01-14T15:18:03.610Z,2.47
2019-01-14T15:20:33.150Z,2.40
2019-01-14T15:23:02.635Z,2.70
2019-01-14T15:25:31.737Z,2.80
2019-01-14T15:28:01.241Z,1.90
2019-01-14T15:30:31.665Z,2.00
2019-01-14T15:33:01.132Z,2.23
2019-01-14T15:35:30.779Z,2.73
2019-01-14T15:38:00.389Z,2.10
2019-01-14T15:40:29.870Z,2.00
2019-01-14T15:42:59.766Z,2.30
2019-01-14T15:45:29.389Z,2.30
2019-01-14T15:47:58.880Z,1.90
2019-01-14T15:50:28.331Z,1.57
2019-01-14T15:52:57.833Z,1.77
2019-01-14T15:55:28.166Z,2.07
2019-01-14T15:57:57.711Z,1.90
2019-01-14T16:00:27.752Z,2.53
2019-01-14T16:02:57.242Z,3.03
2019-01-14T16:05:27.137Z,2.77
2019-01-14T16:07:56.690Z,3.07
2019-01-14T16:10:26.907Z,2.80
2019-01-14T16:12:56.480Z,3.47
2019-01-14T16:15:26.098Z,2.73
2019-01-14T16:17:55.763Z,2.77
2019-01-14T16:20:26.785Z,3.43
2019-01-14T16:22:56.675Z,2.80
2019-01-14T16:25:26.228Z,3.33
2019-01-14T16:27:55.723Z,2.63
2019-01-14T16:30:26.799Z,2.90
2019-01-14T16:32:56.281Z,2.63
2019-01-14T16:35:25.840Z,2.43
2019-01-14T16:37:55.342Z,2.83
2019-01-14T16:40:24.819Z,1.93
2019-01-14T16:42:54.355Z,2.23
2019-01-14T16:45:27.702Z,2.07
2019-01-14T16:47:57.224Z,2.93
2019-01-14T16:50:26.735Z,2.57
2019-01-14T16:52:56.653Z,3.23
2019-01-14T16:55:45.120Z,3.30
2019-01-14T16:58:14.624Z,2.97
2019-01-14T17:00:44.138Z,2.97
2019-01-14T17:03:13.629Z,3.00
2019-01-14T17:05:52.844Z,2.87
2019-01-14T17:08:22.733Z,3.07
2019-01-14T17:10:52.207Z,2.53
2019-01-14T17:13:21.740Z,3.20
2019-01-14T17:15:51.219Z,2.70
2019-01-14T17:18:21.515Z,2.43
2019-01-14T17:20:51.087Z,3.30
2019-01-14T17:23:19.968Z,3.53
2019-01-14T17:25:49.479Z,2.70
2019-01-14T17:28:18.943Z,3.20
2019-01-14T17:30:48.451Z,3.67
2019-01-14T17:33:17.971Z,3.77
2019-01-14T17:35:47.482Z,3.20
2019-01-14T17:38:17.274Z,4.70
2019-01-14T17:40:46.816Z,3.03
2019-01-14T17:43:16.322Z,3.50
2019-01-14T17:45:46.025Z,3.17
2019-01-14T17:48:15.547Z,3.93
2019-01-14T17:50:45.082Z,3.83
2019-01-14T17:53:14.594Z,2.97
2019-01-14T17:55:44.100Z,2.97
2019-01-14T17:58:13.638Z,3.40
2019-01-14T18:00:43.115Z,4.10
2019-01-14T18:03:12.700Z,3.43
2019-01-14T18:05:42.194Z,3.37
2019-01-14T18:08:11.711Z,3.30
2019-01-14T18:10:41.258Z,3.60
2019-01-14T18:13:10.748Z,3.93
2019-01-14T18:15:40.402Z,2.97
2019-01-14T18:18:09.891Z,2.97
2019-01-14T18:20:39.366Z,2.80
2019-01-14T18:23:08.917Z,2.70
2019-01-14T18:25:38.386Z,3.27
2019-01-14T18:28:07.887Z,2.50
2019-01-14T18:30:37.373Z,2.80
2019-01-14T18:33:06.886Z,2.50
2019-01-14T18:35:36.401Z,4.13
2019-01-14T18:38:06.031Z,2.80
2019-01-14T18:40:35.534Z,2.47
2019-01-14T18:43:05.008Z,3.10
2019-01-14T18:45:34.585Z,2.87
2019-01-14T18:48:04.073Z,2.73
2019-01-14T18:50:33.566Z,2.97
2019-01-14T18:53:03.074Z,2.90
2019-01-14T18:55:32.873Z,3.00
2019-01-14T18:58:02.429Z,3.10
2019-01-14T19:00:31.922Z,2.90
2019-01-14T19:03:01.394Z,2.83
2019-01-14T19:05:32.453Z,3.10
2019-01-14T19:08:03.243Z,3.53
2019-01-14T19:10:34.111Z,3.50
2019-01-14T19:13:05.150Z,3.20
2019-01-14T19:15:35.903Z,3.20
2019-01-14T19:18:05.601Z,3.80
2019-01-14T19:20:35.102Z,3.17
2019-01-14T19:23:04.554Z,3.83
2019-01-14T19:25:34.078Z,2.37
2019-01-14T19:28:02.950Z,3.00
2019-01-14T19:30:32.487Z,3.30
2019-01-14T19:33:01.984Z,3.47
2019-01-14T19:35:31.535Z,3.43
2019-01-14T19:38:01.048Z,3.63
2019-01-14T19:40:30.538Z,3.37
2019-01-14T19:43:00.042Z,3.50
2019-01-14T19:45:29.542Z,3.43
2019-01-14T19:47:58.994Z,3.03
2019-01-14T19:50:28.444Z,2.83
2019-01-14T19:52:58.191Z,3.27
2019-01-14T19:55:27.782Z,3.10
2019-01-14T19:57:57.254Z,2.90
2019-01-14T20:00:28.989Z,4.10
2019-01-14T20:02:58.667Z,2.97
2019-01-14T20:05:28.123Z,3.40
2019-01-14T20:07:57.745Z,2.83
2019-01-14T20:10:27.251Z,3.10
2019-01-14T20:12:57.354Z,3.03
2019-01-14T20:15:26.864Z,3.43
2019-01-14T20:17:56.341Z,2.90
2019-01-14T20:20:25.957Z,2.93
2019-01-14T20:22:55.510Z,3.47
2019-01-14T20:25:25.264Z,3.00
2019-01-14T20:27:54.742Z,3.67
2019-01-14T20:30:25.362Z,3.27
2019-01-14T20:32:54.940Z,2.73
2019-01-14T20:35:24.453Z,3.70
2019-01-14T20:37:54.057Z,3.27
2019-01-14T20:40:23.689Z,3.30
2019-01-14T20:42:53.208Z,3.70
2019-01-14T20:45:22.729Z,3.10
2019-01-14T20:47:52.195Z,3.60
2019-01-14T20:50:22.396Z,3.00
2019-01-14T20:52:51.914Z,3.53
2019-01-14T20:55:21.428Z,4.10
2019-01-14T20:57:50.933Z,3.10
2019-01-14T21:00:26.651Z,3.60
2019-01-14T21:02:56.174Z,2.97
2019-01-14T21:05:26.795Z,3.37
2019-01-14T21:07:56.257Z,3.00
2019-01-14T21:10:25.811Z,2.90
2019-01-14T21:12:55.359Z,3.20
2019-01-14T21:15:24.890Z,2.90
2019-01-14T21:17:54.412Z,2.93
2019-01-14T21:20:25.209Z,3.17
2019-01-14T21:22:55.846Z,3.93
2019-01-14T21:25:25.453Z,4.33
2019-01-14T21:27:54.977Z,3.47
2019-01-14T21:30:26.389Z,4.17
2019-01-14T21:32:55.894Z,3.23
2019-01-14T21:35:25.445Z,3.50
2019-01-14T21:37:56.782Z,4.20
2019-01-14T21:40:26.294Z,3.53
2019-01-14T21:42:55.868Z,3.00
2019-01-14T21:45:25.329Z,3.50
2019-01-14T21:47:54.844Z,3.83
2019-01-14T21:50:24.384Z,3.20
2019-01-14T21:52:53.258Z,3.40
2019-01-14T21:55:24.470Z,2.87
2019-01-14T21:57:54.043Z,3.80
2019-01-14T22:00:24.675Z,3.50
2019-01-14T22:02:54.284Z,2.90
2019-01-14T22:05:23.857Z,4.27
2019-01-14T22:07:53.960Z,3.07
2019-01-14T22:10:25.398Z,3.37
2019-01-14T22:12:55.035Z,3.57
2019-01-14T22:15:24.589Z,3.10
2019-01-14T22:17:54.131Z,3.80
2019-01-14T22:20:25.794Z,3.47
2019-01-14T22:22:55.315Z,3.23
2019-01-14T22:25:24.924Z,4.03
2019-01-14T22:27:54.453Z,3.43
2019-01-14T22:30:34.535Z,2.93
2019-01-14T22:33:04.456Z,3.13
2019-01-14T22:35:34.125Z,3.63
2019-01-14T22:38:03.631Z,3.07
2019-01-14T22:40:33.171Z,3.97
2019-01-14T22:43:02.007Z,3.67
2019-01-14T22:45:31.528Z,3.00
2019-01-14T22:48:00.990Z,3.60
2019-01-14T22:50:30.434Z,3.03
2019-01-14T22:52:59.926Z,3.10
2019-01-14T22:55:29.721Z,3.90
2019-01-14T22:57:59.383Z,3.37
2019-01-14T23:00:54.435Z,3.20
2019-01-14T23:03:24.326Z,2.43
2019-01-14T23:05:53.809Z,2.53
2019-01-14T23:08:23.305Z,2.80
2019-01-14T23:10:52.806Z,3.23
2019-01-14T23:13:22.342Z,2.93
2019-01-14T23:15:51.878Z,3.10
2019-01-14T23:18:21.370Z,3.40
2019-01-14T23:20:50.852Z,2.60
2019-01-14T23:23:20.326Z,3.13
2019-01-14T23:25:49.817Z,3.20
2019-01-14T23:28:19.293Z,3.63
2019-01-14T23:30:48.834Z,2.80
2019-01-14T23:33:18.381Z,3.53
2019-01-14T23:35:47.921Z,2.90
2019-01-14T23:38:17.394Z,3.07
2019-01-14T23:40:46.943Z,3.23
2019-01-14T23:43:16.437Z,2.70
2019-01-14T23:45:45.976Z,3.00
2019-01-14T23:48:15.449Z,2.80
2019-01-14T23:50:44.960Z,3.17
2019-01-14T23:53:14.501Z,3.00
2019-01-14T23:55:44.407Z,3.57
2019-01-14T23:58:13.928Z,2.23
